Time,TemperatureF,DewpointF,PressureIn,WindDirection,WindDirectionDegrees,WindSpeedMPH,WindSpeedGustMPH,Humidity,HourlyPrecipIn,Conditions,Clouds,dailyrainin,SoftwareType,DateUTC
2013-01-03 00:01:00,38.6,35.1,30.16,WNW,286,0.0,-999.0,87,0.00,,,0.00,Wunderground v.1.12,2013-01-03 05:01:00,
2013-01-03 00:02:00,38.6,35.1,30.16,WNW,286,0.0,-999.0,87,0.00,,,0.00,Wunderground v.1.12,2013-01-03 05:02:00,
2013-01-03 00:03:00,38.6,35.4,30.16,WNW,286,0.0,-999.0,88,0.00,,,0.00,Wunderground v.1.12,2013-01-03 05:03:00,
2013-01-03 00:09:00,38.6,35.4,30.16,WNW,286,0.0,-999.0,88,0.00,,,0.00,Wunderground v.1.12,2013-01-03 05:09:00,
2013-01-03 00:13:00,38.6,35.4,30.16,WNW,286,0.0,-999.0,88,0.00,,,0.00,Wunderground v.1.12,2013-01-03 05:13:00,
2013-01-03 00:19:00,38.6,35.4,30.16,WNW,286,0.0,-999.0,88,0.00,,,0.00,Wunderground v.1.12,2013-01-03 05:19:00,
2013-01-03 00:25:00,38.6,35.4,30.16,WNW,286,0.0,-999.0,88,0.00,,,0.00,Wunderground v.1.12,2013-01-03 05:25:00,
2013-01-03 00:30:00,38.6,35.4,30.16,WNW,286,0.0,-999.0,88,0.00,,,0.00,Wunderground v.1.12,2013-01-03 05:30:00,
2013-01-03 00:35:00,38.5,35.3,30.16,West,281,0.0,-999.0,88,0.00,,,0.00,Wunderground v.1.12,2013-01-03 05:35:00,
2013-01-03 00:41:00,38.5,35.3,30.16,WNW,290,0.0,-999.0,88,0.00,,,0.00,Wunderground v.1.12,2013-01-03 05:41:00,
2013-01-03 00:47:00,38.5,35.3,30.16,WNW,293,0.0,-999.0,88,0.00,,,0.00,Wunderground v.1.12,2013-01-03 05:47:00,
2013-01-03 00:52:00,38.5,35.3,30.16,WNW,293,0.0,-999.0,88,0.00,,,0.00,Wunderground v.1.12,2013-01-03 05:52:00,
2013-01-03 00:58:00,38.5,35.3,30.16,WNW,291,0.0,-999.0,88,0.00,,,0.00,Wunderground v.1.12,2013-01-03 05:58:00,
2013-01-03 01:03:00,38.5,35.3,30.16,NW,307,0.0,-999.0,88,0.00,,,0.00,Wunderground v.1.12,2013-01-03 06:03:00,
2013-01-03 01:09:00,38.5,35.3,30.16,NW,307,0.0,-999.0,88,0.00,,,0.00,Wunderground v.1.12,2013-01-03 06:09:00,
2013-01-03 01:14:00,38.5,35.3,30.15,NW,307,0.0,-999.0,88,0.00,,,0.00,Wunderground v.1.12,2013-01-03 06:14:00,
2013-01-03 01:19:00,38.5,35.3,30.15,NW,307,0.0,-999.0,88,0.00,,,0.00,Wunderground v.1.12,2013-01-03 06:19:00,
2013-01-03 01:25:00,38.3,35.1,30.15,NW,307,0.0,-999.0,88,0.00,,,0.00,Wunderground v.1.12,2013-01-03 06:25:00,
2013-01-03 01:30:00,38.5,35.3,30.16,NW,307,0.0,-999.0,88,0.00,,,0.00,Wunderground v.1.12,2013-01-03 06:30:00,
2013-01-03 01:36:00,38.5,35.3,30.16,WNW,302,0.0,-999.0,88,0.00,,,0.00,Wunderground v.1.12,2013-01-03 06:36:00,
2013-01-03 01:41:00,38.5,35.3,30.16,WNW,302,0.0,-999.0,88,0.00,,,0.00,Wunderground v.1.12,2013-01-03 06:41:00,
2013-01-03 01:47:00,38.5,35.3,30.16,WNW,302,0.0,-999.0,88,0.00,,,0.00,Wunderground v.1.12,2013-01-03 06:47:00,
2013-01-03 01:52:00,38.3,34.8,30.16,WNW,302,0.0,-999.0,87,0.00,,,0.00,Wunderground v.1.12,2013-01-03 06:52:00,
2013-01-03 01:58:00,38.3,34.8,30.15,WNW,302,0.0,-999.0,87,0.00,,,0.00,Wunderground v.1.12,2013-01-03 06:58:00,
2013-01-03 02:03:00,38.3,34.8,30.15,WNW,302,0.0,-999.0,87,0.00,,,0.00,Wunderground v.1.12,2013-01-03 07:03:00,
2013-01-03 02:09:00,38.3,34.8,30.15,WNW,302,0.0,-999.0,87,0.00,,,0.00,Wunderground v.1.12,2013-01-03 07:09:00,
2013-01-03 02:14:00,38.3,34.8,30.15,WNW,302,0.0,-999.0,87,0.00,,,0.00,Wunderground v.1.12,2013-01-03 07:14:00,
2013-01-03 02:19:00,38.3,34.8,30.15,WNW,302,0.0,-999.0,87,0.00,,,0.00,Wunderground v.1.12,2013-01-03 07:19:00,
2013-01-03 02:24:00,38.3,34.8,30.15,WNW,302,0.0,-999.0,87,0.00,,,0.00,Wunderground v.1.12,2013-01-03 07:24:00,
2013-01-03 02:29:00,38.3,34.8,30.16,WNW,300,0.0,-999.0,87,0.00,,,0.00,Wunderground v.1.12,2013-01-03 07:29:00,
2013-01-03 02:34:00,38.3,34.8,30.16,WNW,300,0.0,-999.0,87,0.00,,,0.00,Wunderground v.1.12,2013-01-03 07:34:00,
2013-01-03 02:39:00,38.3,34.8,30.16,WNW,300,0.0,-999.0,87,0.00,,,0.00,Wunderground v.1.12,2013-01-03 07:39:00,
2013-01-03 02:44:00,38.3,34.8,30.16,WNW,300,0.0,-999.0,87,0.00,,,0.00,Wunderground v.1.12,2013-01-03 07:44:00,
2013-01-03 02:49:00,38.2,34.7,30.16,WNW,300,0.0,-999.0,87,0.00,,,0.00,Wunderground v.1.12,2013-01-03 07:49:00,
2013-01-03 02:54:00,38.2,34.7,30.16,WNW,300,0.0,-999.0,87,0.00,,,0.00,Wunderground v.1.12,2013-01-03 07:54:00,
2013-01-03 02:59:00,38.2,34.7,30.16,WNW,300,0.0,-999.0,87,0.00,,,0.00,Wunderground v.1.12,2013-01-03 07:59:00,
2013-01-03 03:04:00,38.2,34.7,30.16,WNW,300,0.0,-999.0,87,0.00,,,0.00,Wunderground v.1.12,2013-01-03 08:04:00,
2013-01-03 03:09:00,38.2,34.7,30.16,WNW,300,0.0,-999.0,87,0.00,,,0.00,Wunderground v.1.12,2013-01-03 08:09:00,
2013-01-03 03:14:00,38.2,34.7,30.16,WNW,300,0.0,-999.0,87,0.00,,,0.00,Wunderground v.1.12,2013-01-03 08:14:00,
2013-01-03 03:19:00,38.2,34.7,30.16,WNW,300,0.0,-999.0,87,0.00,,,0.00,Wunderground v.1.12,2013-01-03 08:19:00,
2013-01-03 03:25:00,38.2,34.7,30.16,WNW,301,0.0,-999.0,87,0.00,,,0.00,Wunderground v.1.12,2013-01-03 08:25:00,
2013-01-03 03:30:00,38.2,34.7,30.16,WNW,301,0.0,-999.0,87,0.00,,,0.00,Wunderground v.1.12,2013-01-03 08:30:00,
2013-01-03 03:35:00,38.2,34.7,30.16,WNW,301,0.0,-999.0,87,0.00,,,0.00,Wunderground v.1.12,2013-01-03 08:35:00,
2013-01-03 03:40:00,38.2,34.7,30.16,WNW,302,0.0,-999.0,87,0.00,,,0.00,Wunderground v.1.12,2013-01-03 08:40:00,
2013-01-03 03:45:00,38.2,34.7,30.17,WNW,302,0.0,-999.0,87,0.00,,,0.00,Wunderground v.1.12,2013-01-03 08:45:00,
2013-01-03 03:50:00,38.2,34.7,30.17,WNW,302,0.0,-999.0,87,0.00,,,0.00,Wunderground v.1.12,2013-01-03 08:50:00,
2013-01-03 03:55:00,38.2,34.7,30.17,WNW,295,0.0,-999.0,87,0.00,,,0.00,Wunderground v.1.12,2013-01-03 08:55:00,
2013-01-03 04:00:00,38.2,34.7,30.17,NW,325,0.0,-999.0,87,0.00,,,0.00,Wunderground v.1.12,2013-01-03 09:00:00,
2013-01-03 04:06:00,38.2,34.7,30.17,NW,324,0.0,-999.0,87,0.00,,,0.00,Wunderground v.1.12,2013-01-03 09:06:00,
2013-01-03 04:11:00,38.2,34.7,30.17,NW,322,0.0,-999.0,87,0.00,,,0.00,Wunderground v.1.12,2013-01-03 09:11:00,
2013-01-03 04:16:00,38.2,34.7,30.18,WNW,297,0.0,-999.0,87,0.00,,,0.00,Wunderground v.1.12,2013-01-03 09:16:00,
2013-01-03 04:21:00,38.2,34.7,30.18,WNW,297,0.0,-999.0,87,0.00,,,0.00,Wunderground v.1.12,2013-01-03 09:21:00,
2013-01-03 04:26:00,38.0,34.5,30.18,WNW,300,0.0,-999.0,87,0.00,,,0.00,Wunderground v.1.12,2013-01-03 09:26:00,
2013-01-03 04:31:00,38.0,34.5,30.18,WNW,300,0.0,-999.0,87,0.00,,,0.00,Wunderground v.1.12,2013-01-03 09:31:00,
2013-01-03 04:36:00,38.0,34.5,30.18,WNW,298,0.0,-999.0,87,0.00,,,0.00,Wunderground v.1.12,2013-01-03 09:36:00,
2013-01-03 04:41:00,38.0,34.5,30.18,WNW,298,0.0,-999.0,87,0.00,,,0.00,Wunderground v.1.12,2013-01-03 09:41:00,
2013-01-03 04:46:00,38.0,34.5,30.18,WNW,300,0.0,-999.0,87,0.00,,,0.00,Wunderground v.1.12,2013-01-03 09:46:00,
2013-01-03 04:51:00,38.0,34.5,30.18,WNW,298,0.0,-999.0,87,0.00,,,0.00,Wunderground v.1.12,2013-01-03 09:51:00,
2013-01-03 04:57:00,38.0,34.5,30.17,WNW,300,0.0,-999.0,87,0.00,,,0.00,Wunderground v.1.12,2013-01-03 09:57:00,
2013-01-03 05:02:00,37.9,34.4,30.17,WNW,290,0.0,-999.0,87,0.00,,,0.00,Wunderground v.1.12,2013-01-03 10:02:00,
2013-01-03 05:07:00,37.9,34.4,30.17,WNW,291,0.0,-999.0,87,0.00,,,0.00,Wunderground v.1.12,2013-01-03 10:07:00,
2013-01-03 05:12:00,37.9,34.4,30.18,WNW,291,0.0,-999.0,87,0.00,,,0.00,Wunderground v.1.12,2013-01-03 10:12:00,
2013-01-03 05:17:00,37.8,34.3,30.18,WNW,291,0.0,-999.0,87,0.00,,,0.00,Wunderground v.1.12,2013-01-03 10:17:00,
2013-01-03 05:22:00,37.8,34.3,30.18,WNW,291,0.0,-999.0,87,0.00,,,0.00,Wunderground v.1.12,2013-01-03 10:22:00,
2013-01-03 05:27:00,37.8,34.3,30.18,WNW,291,0.0,-999.0,87,0.00,,,0.00,Wunderground v.1.12,2013-01-03 10:27:00,
2013-01-03 05:32:00,37.8,34.3,30.18,WNW,291,0.0,-999.0,87,0.00,,,0.00,Wunderground v.1.12,2013-01-03 10:32:00,
2013-01-03 05:37:00,37.6,34.1,30.18,WNW,291,0.0,-999.0,87,0.00,,,0.00,Wunderground v.1.12,2013-01-03 10:37:00,
2013-01-03 05:42:00,37.6,34.1,30.18,WNW,291,0.0,-999.0,87,0.00,,,0.00,Wunderground v.1.12,2013-01-03 10:42:00,
2013-01-03 05:47:00,37.6,34.1,30.18,WNW,291,0.0,-999.0,87,0.00,,,0.00,Wunderground v.1.12,2013-01-03 10:47:00,
2013-01-03 05:52:00,37.5,34.0,30.18,WNW,291,0.0,-999.0,87,0.00,,,0.00,Wunderground v.1.12,2013-01-03 10:52:00,
2013-01-03 05:57:00,37.5,34.0,30.19,WNW,291,0.0,-999.0,87,0.00,,,0.00,Wunderground v.1.12,2013-01-03 10:57:00,
2013-01-03 06:02:00,37.5,34.0,30.19,WNW,291,0.0,-999.0,87,0.00,,,0.00,Wunderground v.1.12,2013-01-03 11:02:00,
2013-01-03 06:07:00,37.3,33.8,30.19,WNW,291,0.0,-999.0,87,0.00,,,0.00,Wunderground v.1.12,2013-01-03 11:07:00,
2013-01-03 06:12:00,37.3,33.8,30.19,WNW,291,0.0,-999.0,87,0.00,,,0.00,Wunderground v.1.12,2013-01-03 11:12:00,
2013-01-03 06:17:00,37.3,33.8,30.19,NW,308,0.0,-999.0,87,0.00,,,0.00,Wunderground v.1.12,2013-01-03 11:17:00,
2013-01-03 06:22:00,37.3,33.8,30.19,NW,308,0.0,-999.0,87,0.00,,,0.00,Wunderground v.1.12,2013-01-03 11:22:00,
2013-01-03 06:27:00,37.3,33.8,30.19,NW,308,0.0,-999.0,87,0.00,,,0.00,Wunderground v.1.12,2013-01-03 11:27:00,
2013-01-03 06:32:00,37.2,33.7,30.19,NW,308,0.0,-999.0,87,0.00,,,0.00,Wunderground v.1.12,2013-01-03 11:32:00,
2013-01-03 06:37:00,37.2,33.7,30.19,NW,307,0.0,-999.0,87,0.00,,,0.00,Wunderground v.1.12,2013-01-03 11:37:00,
2013-01-03 06:42:00,37.2,33.7,30.19,NW,307,0.0,-999.0,87,0.00,,,0.00,Wunderground v.1.12,2013-01-03 11:42:00,
2013-01-03 06:47:00,37.0,33.5,30.19,NW,307,0.0,-999.0,87,0.00,,,0.00,Wunderground v.1.12,2013-01-03 11:47:00,
2013-01-03 06:52:00,37.0,33.5,30.19,NW,307,0.0,-999.0,87,0.00,,,0.00,Wunderground v.1.12,2013-01-03 11:52:00,
2013-01-03 06:57:00,37.0,33.5,30.19,NW,305,0.0,-999.0,87,0.00,,,0.00,Wunderground v.1.12,2013-01-03 11:57:00,
2013-01-03 07:02:00,37.0,33.5,30.19,NW,305,0.0,-999.0,87,0.00,,,0.00,Wunderground v.1.12,2013-01-03 12:02:00,
2013-01-03 07:07:00,37.0,33.5,30.19,NW,305,0.0,-999.0,87,0.00,,,0.00,Wunderground v.1.12,2013-01-03 12:07:00,
2013-01-03 07:12:00,36.9,33.4,30.19,NW,305,0.0,-999.0,87,0.00,,,0.00,Wunderground v.1.12,2013-01-03 12:12:00,
2013-01-03 07:17:00,36.9,33.4,30.19,NW,305,0.0,-999.0,87,0.00,,,0.00,Wunderground v.1.12,2013-01-03 12:17:00,
2013-01-03 07:22:00,36.9,33.4,30.19,NW,305,0.0,-999.0,87,0.00,,,0.00,Wunderground v.1.12,2013-01-03 12:22:00,
2013-01-03 07:27:00,36.9,33.4,30.19,NNW,335,0.0,-999.0,87,0.00,,,0.00,Wunderground v.1.12,2013-01-03 12:27:00,
2013-01-03 07:32:00,36.9,33.4,30.19,NNW,335,0.0,-999.0,87,0.00,,,0.00,Wunderground v.1.12,2013-01-03 12:32:00,
2013-01-03 07:37:00,36.9,33.4,30.19,WNW,291,0.0,-999.0,87,0.00,,,0.00,Wunderground v.1.12,2013-01-03 12:37:00,
2013-01-03 07:43:00,36.8,33.3,30.18,North,0,0.0,-999.0,87,0.00,,,0.00,Wunderground v.1.12,2013-01-03 12:43:00,
2013-01-03 07:48:00,36.8,33.3,30.18,WNW,300,0.0,-999.0,87,0.00,,,0.00,Wunderground v.1.12,2013-01-03 12:48:00,
2013-01-03 07:54:00,36.8,33.3,30.18,NW,312,0.0,-999.0,87,0.00,,,0.00,Wunderground v.1.12,2013-01-03 12:54:00,
2013-01-03 07:59:00,36.8,33.3,30.19,West,270,0.0,-999.0,87,0.00,,,0.00,Wunderground v.1.12,2013-01-03 12:59:00,
2013-01-03 08:04:00,36.8,33.3,30.19,West,270,0.0,-999.0,87,0.00,,,0.00,Wunderground v.1.12,2013-01-03 13:04:00,
2013-01-03 08:09:00,36.6,33.1,30.19,West,270,0.0,-999.0,87,0.00,,,0.00,Wunderground v.1.12,2013-01-03 13:09:00,
2013-01-03 08:14:00,36.6,33.1,30.20,West,270,0.0,-999.0,87,0.00,,,0.00,Wunderground v.1.12,2013-01-03 13:14:00,
2013-01-03 08:19:00,36.6,33.1,30.20,NE,41,0.0,-999.0,87,0.00,,,0.00,Wunderground v.1.12,2013-01-03 13:19:00,
2013-01-03 08:24:00,36.6,33.1,30.20,NE,41,0.0,-999.0,87,0.00,,,0.00,Wunderground v.1.12,2013-01-03 13:24:00,
2013-01-03 08:29:00,36.6,33.1,30.19,NNE,27,0.0,-999.0,87,0.00,,,0.00,Wunderground v.1.12,2013-01-03 13:29:00,
2013-01-03 08:34:00,36.6,33.1,30.19,NNE,14,0.0,-999.0,87,0.00,,,0.00,Wunderground v.1.12,2013-01-03 13:34:00,
2013-01-03 08:39:00,36.8,33.3,30.19,North,6,0.0,-999.0,87,0.00,,,0.00,Wunderground v.1.12,2013-01-03 13:39:00,
2013-01-03 08:44:00,36.8,33.3,30.21,North,355,0.0,-999.0,87,0.00,,,0.00,Wunderground v.1.12,2013-01-03 13:44:00,
2013-01-03 08:49:00,36.8,33.3,30.21,North,349,0.0,-999.0,87,0.00,,,0.00,Wunderground v.1.12,2013-01-03 13:49:00,
2013-01-03 08:54:00,36.8,33.3,30.21,NW,311,0.0,-999.0,87,0.00,,,0.00,Wunderground v.1.12,2013-01-03 13:54:00,
2013-01-03 08:59:00,36.8,33.0,30.20,WNW,283,0.0,-999.0,86,0.00,,,0.00,Wunderground v.1.12,2013-01-03 13:59:00,
2013-01-03 09:04:00,36.8,33.0,30.20,West,277,0.0,-999.0,86,0.00,,,0.00,Wunderground v.1.12,2013-01-03 14:04:00,
2013-01-03 09:09:00,36.8,33.0,30.20,West,278,0.0,-999.0,86,0.00,,,0.00,Wunderground v.1.12,2013-01-03 14:09:00,
2013-01-03 09:14:00,36.8,33.0,30.21,West,278,0.0,-999.0,86,0.00,,,0.00,Wunderground v.1.12,2013-01-03 14:14:00,
2013-01-03 09:19:00,36.9,33.1,30.21,NNE,31,0.0,-999.0,86,0.00,,,0.00,Wunderground v.1.12,2013-01-03 14:19:00,
2013-01-03 09:24:00,36.9,33.1,30.21,NNW,345,0.0,-999.0,86,0.00,,,0.00,Wunderground v.1.12,2013-01-03 14:24:00,
2013-01-03 09:29:00,36.9,33.1,30.21,NNW,339,0.0,-999.0,86,0.00,,,0.00,Wunderground v.1.12,2013-01-03 14:29:00,
2013-01-03 09:34:00,36.9,33.1,30.21,NNW,339,0.0,-999.0,86,0.00,,,0.00,Wunderground v.1.12,2013-01-03 14:34:00,
2013-01-03 09:39:00,37.0,33.2,30.21,NNW,331,0.0,-999.0,86,0.00,,,0.00,Wunderground v.1.12,2013-01-03 14:39:00,
2013-01-03 09:44:00,37.2,33.4,30.22,NW,324,0.0,-999.0,86,0.00,,,0.00,Wunderground v.1.12,2013-01-03 14:44:00,
2013-01-03 09:49:00,37.2,33.1,30.22,West,260,0.0,-999.0,85,0.00,,,0.00,Wunderground v.1.12,2013-01-03 14:49:00,
2013-01-03 09:54:00,37.2,33.1,30.22,West,260,0.0,-999.0,85,0.00,,,0.00,Wunderground v.1.12,2013-01-03 14:54:00,
2013-01-03 09:59:00,37.3,33.2,30.23,West,260,0.0,-999.0,85,0.00,,,0.00,Wunderground v.1.12,2013-01-03 14:59:00,
2013-01-03 10:04:00,37.3,32.9,30.23,WNW,298,0.0,-999.0,84,0.00,,,0.00,Wunderground v.1.12,2013-01-03 15:04:00,
2013-01-03 10:09:00,37.5,33.1,30.23,West,269,0.0,-999.0,84,0.00,,,0.00,Wunderground v.1.12,2013-01-03 15:09:00,
2013-01-03 10:14:00,37.6,33.2,30.24,West,269,0.0,-999.0,84,0.00,,,0.00,Wunderground v.1.12,2013-01-03 15:14:00,
2013-01-03 10:19:00,37.8,33.4,30.24,West,270,0.0,-999.0,84,0.00,,,0.00,Wunderground v.1.12,2013-01-03 15:19:00,
2013-01-03 10:24:00,37.8,33.1,30.24,West,278,0.0,-999.0,83,0.00,,,0.00,Wunderground v.1.12,2013-01-03 15:24:00,
2013-01-03 10:29:00,37.8,33.1,30.24,NNW,329,0.0,-999.0,83,0.00,,,0.00,Wunderground v.1.12,2013-01-03 15:29:00,
2013-01-03 10:35:00,37.9,33.2,30.24,WNW,295,0.0,-999.0,83,0.00,,,0.00,Wunderground v.1.12,2013-01-03 15:35:00,
2013-01-03 10:40:00,38.2,33.2,30.24,West,271,0.0,-999.0,82,0.00,,,0.00,Wunderground v.1.12,2013-01-03 15:40:00,
2013-01-03 10:45:00,38.3,33.3,30.24,NW,322,0.0,-999.0,82,0.00,,,0.00,Wunderground v.1.12,2013-01-03 15:45:00,
2013-01-03 10:50:00,38.6,33.6,30.24,NW,314,0.0,-999.0,82,0.00,,,0.00,Wunderground v.1.12,2013-01-03 15:50:00,
2013-01-03 10:55:00,38.9,33.6,30.24,West,269,0.0,-999.0,81,0.00,,,0.00,Wunderground v.1.12,2013-01-03 15:55:00,
2013-01-03 11:00:00,39.2,33.9,30.24,West,269,0.0,-999.0,81,0.00,,,0.00,Wunderground v.1.12,2013-01-03 16:00:00,
2013-01-03 11:06:00,39.5,33.8,30.24,West,270,0.0,-999.0,80,0.00,,,0.00,Wunderground v.1.12,2013-01-03 16:06:00,
2013-01-03 11:11:00,39.6,33.9,30.24,West,270,0.0,-999.0,80,0.00,,,0.00,Wunderground v.1.12,2013-01-03 16:11:00,
2013-01-03 11:16:00,39.6,33.6,30.24,West,269,0.0,-999.0,79,0.00,,,0.00,Wunderground v.1.12,2013-01-03 16:16:00,
2013-01-03 11:21:00,39.8,33.5,30.24,West,269,0.0,-999.0,78,0.00,,,0.00,Wunderground v.1.12,2013-01-03 16:21:00,
2013-01-03 11:26:00,39.9,33.3,30.24,West,269,0.0,-999.0,77,0.00,,,0.00,Wunderground v.1.12,2013-01-03 16:26:00,
2013-01-03 11:31:00,40.1,33.5,30.24,SSW,212,0.0,-999.0,77,0.00,,,0.00,Wunderground v.1.12,2013-01-03 16:31:00,
2013-01-03 11:36:00,40.2,33.6,30.24,NNE,12,0.0,-999.0,77,0.00,,,0.00,Wunderground v.1.12,2013-01-03 16:36:00,
2013-01-03 11:41:00,40.3,33.3,30.24,NW,324,0.0,-999.0,76,0.00,,,0.00,Wunderground v.1.12,2013-01-03 16:41:00,
2013-01-03 11:46:00,40.5,33.2,30.24,SW,230,0.0,-999.0,75,0.00,,,0.00,Wunderground v.1.12,2013-01-03 16:46:00,
2013-01-03 11:51:00,40.8,33.5,30.24,NW,322,0.0,-999.0,75,0.00,,,0.00,Wunderground v.1.12,2013-01-03 16:51:00,
2013-01-03 11:56:00,40.9,33.2,30.24,West,260,0.0,-999.0,74,0.00,,,0.00,Wunderground v.1.12,2013-01-03 16:56:00,
2013-01-03 12:01:00,41.1,33.1,30.23,NW,310,0.0,-999.0,73,0.00,,,0.00,Wunderground v.1.12,2013-01-03 17:01:00,
2013-01-03 12:06:00,41.1,33.1,30.23,West,277,0.0,-999.0,73,0.00,,,0.00,Wunderground v.1.12,2013-01-03 17:06:00,
2013-01-03 12:11:00,41.2,33.2,30.23,West,280,0.0,-999.0,73,0.00,,,0.00,Wunderground v.1.12,2013-01-03 17:11:00,
2013-01-03 12:16:00,41.3,33.0,30.23,West,277,0.0,-999.0,72,0.00,,,0.00,Wunderground v.1.12,2013-01-03 17:16:00,
2013-01-03 12:21:00,41.5,33.1,30.23,West,278,0.0,-999.0,72,0.00,,,0.00,Wunderground v.1.12,2013-01-03 17:21:00,
2013-01-03 12:26:00,41.6,33.2,30.23,West,278,0.0,-999.0,72,0.00,,,0.00,Wunderground v.1.12,2013-01-03 17:26:00,
2013-01-03 12:31:00,41.8,33.1,30.22,West,278,0.0,-999.0,71,0.00,,,0.00,Wunderground v.1.12,2013-01-03 17:31:00,
2013-01-03 12:36:00,41.8,33.1,30.22,North,359,0.0,-999.0,71,0.00,,,0.00,Wunderground v.1.12,2013-01-03 17:36:00,
2013-01-03 12:41:00,41.9,32.8,30.22,West,273,0.0,-999.0,70,0.00,,,0.00,Wunderground v.1.12,2013-01-03 17:41:00,
2013-01-03 12:46:00,42.1,33.0,30.22,West,273,0.0,-999.0,70,0.00,,,0.00,Wunderground v.1.12,2013-01-03 17:46:00,
2013-01-03 12:51:00,42.2,33.1,30.22,West,273,0.0,-999.0,70,0.00,,,0.00,Wunderground v.1.12,2013-01-03 17:51:00,
2013-01-03 12:56:00,42.3,33.2,30.22,West,273,0.0,-999.0,70,0.00,,,0.00,Wunderground v.1.12,2013-01-03 17:56:00,
2013-01-03 13:01:00,42.5,33.0,30.21,WNW,297,0.0,-999.0,69,0.00,,,0.00,Wunderground v.1.12,2013-01-03 18:01:00,
2013-01-03 13:06:00,42.6,33.1,30.21,WNW,288,0.0,-999.0,69,0.00,,,0.00,Wunderground v.1.12,2013-01-03 18:06:00,
2013-01-03 13:11:00,42.6,32.8,30.21,WNW,288,0.0,-999.0,68,0.00,,,0.00,Wunderground v.1.12,2013-01-03 18:11:00,
2013-01-03 13:16:00,42.5,32.3,30.21,West,281,0.0,-999.0,67,0.00,,,0.00,Wunderground v.1.12,2013-01-03 18:16:00,
2013-01-03 13:21:00,42.6,32.4,30.21,West,281,0.0,-999.0,67,0.00,,,0.00,Wunderground v.1.12,2013-01-03 18:21:00,
2013-01-03 13:26:00,42.8,32.6,30.21,WNW,287,3.0,-999.0,67,0.00,,,0.00,Wunderground v.1.12,2013-01-03 18:26:00,
2013-01-03 13:31:00,42.8,33.0,30.20,NW,317,0.0,-999.0,68,0.00,,,0.00,Wunderground v.1.12,2013-01-03 18:31:00,
2013-01-03 13:36:00,43.1,33.3,30.20,NW,314,0.0,-999.0,68,0.00,,,0.00,Wunderground v.1.12,2013-01-03 18:36:00,
2013-01-03 13:41:00,43.2,33.0,30.20,NW,307,0.0,-999.0,67,0.00,,,0.00,Wunderground v.1.12,2013-01-03 18:41:00,
2013-01-03 13:46:00,43.3,32.7,30.20,North,359,0.0,-999.0,66,0.00,,,0.00,Wunderground v.1.12,2013-01-03 18:46:00,
2013-01-03 13:51:00,43.5,32.5,30.20,West,270,6.0,-999.0,65,0.00,,,0.00,Wunderground v.1.12,2013-01-03 18:51:00,
2013-01-03 13:56:00,43.5,32.5,30.20,WNW,298,0.0,-999.0,65,0.00,,,0.00,Wunderground v.1.12,2013-01-03 18:56:00,
2013-01-03 14:01:00,43.6,32.2,30.20,WNW,291,6.0,-999.0,64,0.00,,,0.00,Wunderground v.1.12,2013-01-03 19:01:00,
2013-01-03 14:06:00,43.6,32.2,30.20,West,276,4.0,-999.0,64,0.00,,,0.00,Wunderground v.1.12,2013-01-03 19:06:00,
2013-01-03 14:12:00,43.6,32.2,30.20,NW,311,0.0,-999.0,64,0.00,,,0.00,Wunderground v.1.12,2013-01-03 19:12:00,
2013-01-03 14:17:00,43.8,32.4,30.20,West,269,0.0,-999.0,64,0.00,,,0.00,Wunderground v.1.12,2013-01-03 19:17:00,
2013-01-03 14:51:00,43.8,32.4,30.20,WNW,290,0.0,-999.0,64,0.00,,,0.00,Wunderground v.1.12,2013-01-03 19:51:00,
2013-01-03 14:56:00,43.9,32.5,30.20,WNW,290,0.0,-999.0,64,0.00,,,0.00,Wunderground v.1.12,2013-01-03 19:56:00,
2013-01-03 15:01:00,43.8,32.0,30.21,WNW,288,0.0,-999.0,63,0.00,,,0.00,Wunderground v.1.12,2013-01-03 20:01:00,
2013-01-03 15:06:00,43.6,31.4,30.21,WSW,247,1.0,-999.0,62,0.00,,,0.00,Wunderground v.1.12,2013-01-03 20:06:00,
2013-01-03 15:11:00,43.5,31.3,30.22,West,271,0.0,-999.0,62,0.00,,,0.00,Wunderground v.1.12,2013-01-03 20:11:00,
2013-01-03 15:16:00,43.5,30.9,30.22,West,270,0.0,-999.0,61,0.00,,,0.00,Wunderground v.1.12,2013-01-03 20:16:00,
2013-01-03 15:21:00,43.3,30.7,30.22,West,270,0.0,-999.0,61,0.00,,,0.00,Wunderground v.1.12,2013-01-03 20:21:00,
2013-01-03 15:26:00,43.3,30.7,30.22,NW,325,0.0,-999.0,61,0.00,,,0.00,Wunderground v.1.12,2013-01-03 20:26:00,
2013-01-03 15:31:00,43.3,31.1,30.22,WNW,293,0.0,-999.0,62,0.00,,,0.00,Wunderground v.1.12,2013-01-03 20:31:00,
2013-01-03 15:36:00,43.2,31.1,30.22,WSW,257,0.0,-999.0,62,0.00,,,0.00,Wunderground v.1.12,2013-01-03 20:36:00,
2013-01-03 15:41:00,43.2,31.1,30.23,West,273,2.0,-999.0,62,0.00,,,0.00,Wunderground v.1.12,2013-01-03 20:41:00,
2013-01-03 15:46:00,43.1,31.0,30.23,NW,324,0.0,-999.0,62,0.00,,,0.00,Wunderground v.1.12,2013-01-03 20:46:00,
2013-01-03 15:51:00,42.9,31.2,30.23,WNW,300,0.0,-999.0,63,0.00,,,0.00,Wunderground v.1.12,2013-01-03 20:51:00,
2013-01-03 15:56:00,42.9,31.2,30.23,West,274,0.0,-999.0,63,0.00,,,0.00,Wunderground v.1.12,2013-01-03 20:56:00,
2013-01-03 16:01:00,42.9,31.2,30.23,WNW,290,0.0,-999.0,63,0.00,,,0.00,Wunderground v.1.12,2013-01-03 21:01:00,
2013-01-03 16:06:00,42.8,31.5,30.23,NW,317,0.0,-999.0,64,0.00,,,0.00,Wunderground v.1.12,2013-01-03 21:06:00,
2013-01-03 16:11:00,42.8,31.5,30.24,WNW,294,0.0,-999.0,64,0.00,,,0.00,Wunderground v.1.12,2013-01-03 21:11:00,
2013-01-03 16:16:00,42.8,31.5,30.24,NNE,12,0.0,-999.0,64,0.00,,,0.00,Wunderground v.1.12,2013-01-03 21:16:00,
2013-01-03 16:21:00,42.6,31.3,30.24,NNE,23,0.0,-999.0,64,0.00,,,0.00,Wunderground v.1.12,2013-01-03 21:21:00,
2013-01-03 16:26:00,42.6,30.9,30.24,NNE,22,0.0,-999.0,63,0.00,,,0.00,Wunderground v.1.12,2013-01-03 21:26:00,
2013-01-03 16:32:00,42.6,30.9,30.24,North,9,0.0,-999.0,63,0.00,,,0.00,Wunderground v.1.12,2013-01-03 21:32:00,
2013-01-03 16:37:00,42.5,30.8,30.24,NNE,12,0.0,-999.0,63,0.00,,,0.00,Wunderground v.1.12,2013-01-03 21:37:00,
2013-01-03 16:42:00,42.3,30.6,30.25,WNW,300,0.0,-999.0,63,0.00,,,0.00,Wunderground v.1.12,2013-01-03 21:42:00,
2013-01-03 16:47:00,42.3,30.2,30.25,NW,314,0.0,-999.0,62,0.00,,,0.00,Wunderground v.1.12,2013-01-03 21:47:00,
2013-01-03 16:52:00,42.2,30.5,30.25,NW,322,0.0,-999.0,63,0.00,,,0.00,Wunderground v.1.12,2013-01-03 21:52:00,
2013-01-03 16:57:00,41.9,30.2,30.25,West,271,0.0,-999.0,63,0.00,,,0.00,Wunderground v.1.12,2013-01-03 21:57:00,
2013-01-03 17:02:00,41.8,29.7,30.25,West,270,0.0,-999.0,62,0.00,,,0.00,Wunderground v.1.12,2013-01-03 22:02:00,
2013-01-03 17:07:00,41.6,29.5,30.25,West,270,0.0,-999.0,62,0.00,,,0.00,Wunderground v.1.12,2013-01-03 22:07:00,
2013-01-03 17:12:00,41.3,29.3,30.25,West,276,8.0,-999.0,62,0.00,,,0.00,Wunderground v.1.12,2013-01-03 22:12:00,
2013-01-03 17:17:00,41.2,29.2,30.25,NNE,31,0.0,-999.0,62,0.00,,,0.00,Wunderground v.1.12,2013-01-03 22:17:00,
2013-01-03 17:22:00,41.1,29.5,30.25,West,267,0.0,-999.0,63,0.00,,,0.00,Wunderground v.1.12,2013-01-03 22:22:00,
2013-01-03 17:27:00,40.9,29.3,30.26,West,270,0.0,-999.0,63,0.00,,,0.00,Wunderground v.1.12,2013-01-03 22:27:00,
2013-01-03 17:32:00,40.8,29.6,30.26,SE,144,0.0,-999.0,64,0.00,,,0.00,Wunderground v.1.12,2013-01-03 22:32:00,
2013-01-03 17:37:00,40.6,29.4,30.26,NNW,342,0.0,-999.0,64,0.00,,,0.00,Wunderground v.1.12,2013-01-03 22:37:00,
2013-01-03 17:42:00,40.5,29.3,30.27,NNW,342,0.0,-999.0,64,0.00,,,0.00,Wunderground v.1.12,2013-01-03 22:42:00,
2013-01-03 17:47:00,40.5,29.3,30.27,West,270,0.0,-999.0,64,0.00,,,0.00,Wunderground v.1.12,2013-01-03 22:47:00,
2013-01-03 17:52:00,40.2,29.0,30.27,West,271,0.0,-999.0,64,0.00,,,0.00,Wunderground v.1.12,2013-01-03 22:52:00,
2013-01-03 17:57:00,40.1,29.3,30.27,West,278,0.0,-999.0,65,0.00,,,0.00,Wunderground v.1.12,2013-01-03 22:57:00,
2013-01-03 18:02:00,39.9,29.1,30.27,West,276,0.0,-999.0,65,0.00,,,0.00,Wunderground v.1.12,2013-01-03 23:02:00,
2013-01-03 18:07:00,39.8,29.0,30.27,West,274,0.0,-999.0,65,0.00,,,0.00,Wunderground v.1.12,2013-01-03 23:07:00,
2013-01-03 18:13:00,39.6,28.8,30.29,West,276,0.0,-999.0,65,0.00,,,0.00,Wunderground v.1.12,2013-01-03 23:13:00,
2013-01-03 18:18:00,39.5,28.7,30.29,West,276,0.0,-999.0,65,0.00,,,0.00,Wunderground v.1.12,2013-01-03 23:18:00,
2013-01-03 18:22:00,39.3,28.9,30.29,West,276,0.0,-999.0,66,0.00,,,0.00,Wunderground v.1.12,2013-01-03 23:22:00,
2013-01-03 18:27:00,39.2,28.8,30.29,West,269,0.0,-999.0,66,0.00,,,0.00,Wunderground v.1.12,2013-01-03 23:27:00,
2013-01-03 18:32:00,39.1,28.7,30.29,West,269,0.0,-999.0,66,0.00,,,0.00,Wunderground v.1.12,2013-01-03 23:32:00,
2013-01-03 18:38:00,39.1,29.1,30.29,West,269,0.0,-999.0,67,0.00,,,0.00,Wunderground v.1.12,2013-01-03 23:38:00,
2013-01-03 18:43:00,38.9,28.9,30.29,West,269,0.0,-999.0,67,0.00,,,0.00,Wunderground v.1.12,2013-01-03 23:43:00,
2013-01-03 18:48:00,38.8,28.8,30.29,West,269,0.0,-999.0,67,0.00,,,0.00,Wunderground v.1.12,2013-01-03 23:48:00,
2013-01-03 18:53:00,38.6,28.6,30.29,West,269,0.0,-999.0,67,0.00,,,0.00,Wunderground v.1.12,2013-01-03 23:53:00,
2013-01-03 18:59:00,38.5,28.5,30.30,West,269,0.0,-999.0,67,0.00,,,0.00,Wunderground v.1.12,2013-01-03 23:59:00,
2013-01-03 19:04:00,38.3,28.7,30.30,West,269,0.0,-999.0,68,0.00,,,0.00,Wunderground v.1.12,2013-01-04 00:04:00,
2013-01-03 19:09:00,38.2,28.6,30.30,West,269,0.0,-999.0,68,0.00,,,0.00,Wunderground v.1.12,2013-01-04 00:09:00,
2013-01-03 19:14:00,38.0,28.4,30.30,West,270,0.0,-999.0,68,0.00,,,0.00,Wunderground v.1.12,2013-01-04 00:14:00,
2013-01-03 19:19:00,38.0,28.4,30.30,West,270,0.0,-999.0,68,0.00,,,0.00,Wunderground v.1.12,2013-01-04 00:19:00,
2013-01-03 19:24:00,37.9,28.3,30.30,West,270,0.0,-999.0,68,0.00,,,0.00,Wunderground v.1.12,2013-01-04 00:24:00,
2013-01-03 19:29:00,37.6,28.0,30.30,West,270,0.0,-999.0,68,0.00,,,0.00,Wunderground v.1.12,2013-01-04 00:29:00,
2013-01-03 19:34:00,37.5,28.2,30.30,West,270,0.0,-999.0,69,0.00,,,0.00,Wunderground v.1.12,2013-01-04 00:34:00,
2013-01-03 19:39:00,37.3,28.1,30.30,West,270,0.0,-999.0,69,0.00,,,0.00,Wunderground v.1.12,2013-01-04 00:39:00,
2013-01-03 19:44:00,37.2,28.3,30.31,West,270,0.0,-999.0,70,0.00,,,0.00,Wunderground v.1.12,2013-01-04 00:44:00,
2013-01-03 19:49:00,37.0,28.1,30.31,West,270,0.0,-999.0,70,0.00,,,0.00,Wunderground v.1.12,2013-01-04 00:49:00,
2013-01-03 19:54:00,36.8,28.3,30.31,West,270,0.0,-999.0,71,0.00,,,0.00,Wunderground v.1.12,2013-01-04 00:54:00,
2013-01-03 19:59:00,36.5,28.3,30.31,West,270,0.0,-999.0,72,0.00,,,0.00,Wunderground v.1.12,2013-01-04 00:59:00,
2013-01-03 20:04:00,36.3,28.1,30.31,West,270,0.0,-999.0,72,0.00,,,0.00,Wunderground v.1.12,2013-01-04 01:04:00,
2013-01-03 20:09:00,36.0,28.2,30.31,West,270,0.0,-999.0,73,0.00,,,0.00,Wunderground v.1.12,2013-01-04 01:09:00,
2013-01-03 20:14:00,35.9,28.1,30.32,West,270,0.0,-999.0,73,0.00,,,0.00,Wunderground v.1.12,2013-01-04 01:14:00,
2013-01-03 20:19:00,35.6,28.1,30.32,West,270,0.0,-999.0,74,0.00,,,0.00,Wunderground v.1.12,2013-01-04 01:19:00,
2013-01-03 20:24:00,35.5,28.0,30.32,West,270,0.0,-999.0,74,0.00,,,0.00,Wunderground v.1.12,2013-01-04 01:24:00,
2013-01-03 20:29:00,35.2,28.1,30.32,West,270,0.0,-999.0,75,0.00,,,0.00,Wunderground v.1.12,2013-01-04 01:29:00,
2013-01-03 20:34:00,34.9,28.1,30.32,West,270,0.0,-999.0,76,0.00,,,0.00,Wunderground v.1.12,2013-01-04 01:34:00,
2013-01-03 20:39:00,34.7,28.2,30.32,West,270,0.0,-999.0,77,0.00,,,0.00,Wunderground v.1.12,2013-01-04 01:39:00,
2013-01-03 20:44:00,34.4,27.9,30.31,West,270,0.0,-999.0,77,0.00,,,0.00,Wunderground v.1.12,2013-01-04 01:44:00,
2013-01-03 20:49:00,34.3,27.8,30.31,West,270,0.0,-999.0,77,0.00,,,0.00,Wunderground v.1.12,2013-01-04 01:49:00,
2013-01-03 20:54:00,34.1,27.6,30.31,West,270,0.0,-999.0,77,0.00,,,0.00,Wunderground v.1.12,2013-01-04 01:54:00,
2013-01-03 20:59:00,33.8,27.4,30.31,West,270,0.0,-999.0,77,0.00,,,0.00,Wunderground v.1.12,2013-01-04 01:59:00,
2013-01-03 21:04:00,33.7,27.3,30.31,West,270,0.0,-999.0,77,0.00,,,0.00,Wunderground v.1.12,2013-01-04 02:04:00,
2013-01-03 21:10:00,33.4,27.3,30.31,West,270,0.0,-999.0,78,0.00,,,0.00,Wunderground v.1.12,2013-01-04 02:10:00,
2013-01-03 21:15:00,33.2,27.1,30.31,West,270,0.0,-999.0,78,0.00,,,0.00,Wunderground v.1.12,2013-01-04 02:15:00,
2013-01-03 21:20:00,32.9,27.1,30.31,West,270,0.0,-999.0,79,0.00,,,0.00,Wunderground v.1.12,2013-01-04 02:20:00,
2013-01-03 21:25:00,32.8,27.0,30.31,West,270,0.0,-999.0,79,0.00,,,0.00,Wunderground v.1.12,2013-01-04 02:25:00,
2013-01-03 21:30:00,32.5,26.7,30.32,West,270,0.0,-999.0,79,0.00,,,0.00,Wunderground v.1.12,2013-01-04 02:30:00,
2013-01-03 21:35:00,32.2,26.7,30.32,West,270,0.0,-999.0,80,0.00,,,0.00,Wunderground v.1.12,2013-01-04 02:35:00,
2013-01-03 21:40:00,32.1,26.6,30.32,West,270,0.0,-999.0,80,0.00,,,0.00,Wunderground v.1.12,2013-01-04 02:40:00,
2013-01-03 21:45:00,31.9,26.4,30.32,West,270,0.0,-999.0,80,0.00,,,0.00,Wunderground v.1.12,2013-01-04 02:45:00,
2013-01-03 21:50:00,31.8,26.3,30.32,West,270,0.0,-999.0,80,0.00,,,0.00,Wunderground v.1.12,2013-01-04 02:50:00,
2013-01-03 21:55:00,31.5,26.3,30.32,West,270,0.0,-999.0,81,0.00,,,0.00,Wunderground v.1.12,2013-01-04 02:55:00,
2013-01-03 22:00:00,31.3,26.1,30.33,West,270,0.0,-999.0,81,0.00,,,0.00,Wunderground v.1.12,2013-01-04 03:00:00,
2013-01-03 22:05:00,31.2,26.0,30.33,West,270,0.0,-999.0,81,0.00,,,0.00,Wunderground v.1.12,2013-01-04 03:05:00,
2013-01-03 22:10:00,31.0,25.9,30.33,West,270,0.0,-999.0,81,0.00,,,0.00,Wunderground v.1.12,2013-01-04 03:10:00,
2013-01-03 22:15:00,30.9,25.8,30.34,West,270,0.0,-999.0,81,0.00,,,0.00,Wunderground v.1.12,2013-01-04 03:15:00,
2013-01-03 22:20:00,30.9,25.8,30.34,West,270,0.0,-999.0,81,0.00,,,0.00,Wunderground v.1.12,2013-01-04 03:20:00,
2013-01-03 22:25:00,30.7,25.9,30.34,West,270,0.0,-999.0,82,0.00,,,0.00,Wunderground v.1.12,2013-01-04 03:25:00,
2013-01-03 22:30:00,30.6,25.8,30.34,West,270,0.0,-999.0,82,0.00,,,0.00,Wunderground v.1.12,2013-01-04 03:30:00,
2013-01-03 22:35:00,30.6,25.8,30.34,West,270,0.0,-999.0,82,0.00,,,0.00,Wunderground v.1.12,2013-01-04 03:35:00,
2013-01-03 22:40:00,30.6,25.8,30.34,West,270,0.0,-999.0,82,0.00,,,0.00,Wunderground v.1.12,2013-01-04 03:40:00,
2013-01-03 22:45:00,30.4,25.9,30.34,West,270,0.0,-999.0,83,0.00,,,0.00,Wunderground v.1.12,2013-01-04 03:45:00,
2013-01-03 22:50:00,30.4,25.9,30.34,West,270,0.0,-999.0,83,0.00,,,0.00,Wunderground v.1.12,2013-01-04 03:50:00,
2013-01-03 22:55:00,30.4,25.9,30.34,West,270,0.0,-999.0,83,0.00,,,0.00,Wunderground v.1.12,2013-01-04 03:55:00,
2013-01-03 23:00:00,30.4,26.1,30.36,West,270,0.0,-999.0,84,0.00,,,0.00,Wunderground v.1.12,2013-01-04 04:00:00,
2013-01-03 23:05:00,30.6,26.3,30.36,West,270,0.0,-999.0,84,0.00,,,0.00,Wunderground v.1.12,2013-01-04 04:05:00,
2013-01-03 23:10:00,30.6,26.3,30.36,West,270,0.0,-999.0,84,0.00,,,0.00,Wunderground v.1.12,2013-01-04 04:10:00,
2013-01-03 23:15:00,30.7,26.7,30.36,West,270,0.0,-999.0,85,0.00,,,0.00,Wunderground v.1.12,2013-01-04 04:15:00,
2013-01-03 23:21:00,30.7,26.7,30.36,West,270,0.0,-999.0,85,0.00,,,0.00,Wunderground v.1.12,2013-01-04 04:21:00,
2013-01-03 23:25:00,30.9,26.9,30.36,West,270,0.0,-999.0,85,0.00,,,0.00,Wunderground v.1.12,2013-01-04 04:25:00,
2013-01-03 23:31:00,31.0,27.3,30.36,West,270,0.0,-999.0,86,0.00,,,0.00,Wunderground v.1.12,2013-01-04 04:31:00,
2013-01-03 23:36:00,31.0,27.3,30.36,West,270,0.0,-999.0,86,0.00,,,0.00,Wunderground v.1.12,2013-01-04 04:36:00,
2013-01-03 23:41:00,31.2,27.5,30.36,West,270,0.0,-999.0,86,0.00,,,0.00,Wunderground v.1.12,2013-01-04 04:41:00,
2013-01-03 23:46:00,31.5,27.8,30.36,West,270,0.0,-999.0,86,0.00,,,0.00,Wunderground v.1.12,2013-01-04 04:46:00,
2013-01-03 23:51:00,31.6,27.9,30.36,West,270,0.0,-999.0,86,0.00,,,0.00,Wunderground v.1.12,2013-01-04 04:51:00,
2013-01-03 23:56:00,31.8,28.1,30.36,West,270,0.0,-999.0,86,0.00,,,0.00,Wunderground v.1.12,2013-01-04 04:56:00,